createdAt,value
2018-06-25T00:00:56.577Z,1010.0
2018-06-25T00:01:57.978Z,1010.0
2018-06-25T00:02:59.379Z,1010.0
2018-06-25T00:04:00.760Z,1010.0
2018-06-25T00:05:02.157Z,1010.0
2018-06-25T00:06:03.544Z,1009.9
2018-06-25T00:07:04.941Z,1010.0
2018-06-25T00:08:06.339Z,1009.9
2018-06-25T00:09:07.740Z,1009.9
2018-06-25T00:10:09.134Z,1010.0
2018-06-25T00:11:10.524Z,1010.0
2018-06-25T00:12:11.915Z,1009.9
2018-06-25T00:13:13.307Z,1010.0
2018-06-25T00:14:14.703Z,1010.0
2018-06-25T00:15:16.094Z,1009.9
2018-06-25T00:16:17.488Z,1010.0
2018-06-25T00:17:18.879Z,1009.9
2018-06-25T00:18:20.271Z,1010.0
2018-06-25T00:19:21.663Z,1010.0
2018-06-25T00:20:23.054Z,1009.9
2018-06-25T00:21:24.446Z,1010.0
2018-06-25T00:22:25.845Z,1009.9
2018-06-25T00:23:27.241Z,1010.0
2018-06-25T00:24:28.634Z,1010.0
2018-06-25T00:25:30.025Z,1010.0
2018-06-25T00:26:31.420Z,1010.0
2018-06-25T00:27:32.809Z,1010.0
2018-06-25T00:28:34.203Z,1010.1
2018-06-25T00:29:35.597Z,1010.0
2018-06-25T00:30:37.968Z,1010.1
2018-06-25T00:31:39.350Z,1010.1
2018-06-25T00:32:40.737Z,1010.1
2018-06-25T00:33:42.130Z,1010.1
2018-06-25T00:34:43.532Z,1010.1
2018-06-25T00:35:44.924Z,1010.0
2018-06-25T00:36:46.310Z,1010.1
2018-06-25T00:37:47.704Z,1010.0
2018-06-25T00:38:49.090Z,1010.0
2018-06-25T00:39:50.486Z,1009.9
2018-06-25T00:40:51.878Z,1010.0
2018-06-25T00:41:53.267Z,1010.0
2018-06-25T00:42:54.664Z,1009.9
2018-06-25T00:43:56.062Z,1010.0
2018-06-25T00:44:57.462Z,1009.9
2018-06-25T00:45:58.851Z,1009.9
2018-06-25T00:47:00.243Z,1009.9
2018-06-25T00:48:01.635Z,1009.9
2018-06-25T00:49:03.029Z,1009.9
2018-06-25T00:50:04.423Z,1009.9
2018-06-25T00:51:05.813Z,1009.9
2018-06-25T00:52:07.211Z,1010.0
2018-06-25T00:53:08.600Z,1010.0
2018-06-25T00:54:09.993Z,1010.0
2018-06-25T00:55:11.384Z,1010.0
2018-06-25T00:56:12.773Z,1010.0
2018-06-25T00:57:14.170Z,1009.9
2018-06-25T00:58:15.564Z,1009.9
2018-06-25T00:59:16.959Z,1010.0
2018-06-25T01:00:18.349Z,1009.9
2018-06-25T01:01:19.739Z,1010.0
2018-06-25T01:02:21.129Z,1010.0
2018-06-25T01:03:22.521Z,1010.0
2018-06-25T01:04:23.921Z,1010.0
2018-06-25T01:05:25.311Z,1010.0
2018-06-25T01:06:26.704Z,1010.0
2018-06-25T01:07:28.095Z,1010.0
2018-06-25T01:08:29.484Z,1010.0
2018-06-25T01:09:30.872Z,1010.0
2018-06-25T01:10:32.265Z,1010.0
2018-06-25T01:11:33.658Z,1010.0
2018-06-25T01:12:35.048Z,1010.0
2018-06-25T01:13:36.445Z,1010.0
2018-06-25T01:14:37.836Z,1010.0
2018-06-25T01:15:39.226Z,1010.0
2018-06-25T01:16:40.620Z,1010.0
2018-06-25T01:17:42.010Z,1010.1
2018-06-25T01:18:43.403Z,1010.1
2018-06-25T01:19:44.793Z,1010.1
2018-06-25T01:20:46.184Z,1010.1
2018-06-25T01:21:47.577Z,1010.1
2018-06-25T01:22:49.967Z,1010.0
2018-06-25T01:23:51.361Z,1010.0
2018-06-25T01:24:52.764Z,1010.0
2018-06-25T01:25:54.156Z,1010.0
2018-06-25T01:26:55.548Z,1010.0
2018-06-25T01:27:56.942Z,1010.0
2018-06-25T01:28:58.334Z,1010.0
2018-06-25T01:29:59.733Z,1010.0
2018-06-25T01:31:01.153Z,1010.1
2018-06-25T01:32:02.556Z,1010.1
2018-06-25T01:33:04.681Z,1010.1
2018-06-25T01:34:06.079Z,1010.1
2018-06-25T01:35:07.474Z,1010.1
2018-06-25T01:36:08.882Z,1010.1
2018-06-25T01:37:10.273Z,1010.1
2018-06-25T01:38:11.663Z,1010.1
2018-06-25T01:39:13.060Z,1010.1
2018-06-25T01:40:14.456Z,1010.1
2018-06-25T01:41:15.849Z,1010.1
2018-06-25T01:42:17.241Z,1010.1
2018-06-25T01:43:18.634Z,1010.1
2018-06-25T01:44:20.026Z,1010.1
2018-06-25T01:45:21.416Z,1010.2
2018-06-25T01:46:22.814Z,1010.1
2018-06-25T01:47:24.208Z,1010.1
2018-06-25T01:48:25.599Z,1010.1
2018-06-25T01:49:26.999Z,1010.1
2018-06-25T01:50:28.391Z,1010.1
2018-06-25T01:51:29.786Z,1010.1
2018-06-25T01:52:31.179Z,1010.1
2018-06-25T01:53:32.577Z,1010.1
2018-06-25T01:54:33.975Z,1010.1
2018-06-25T01:55:35.387Z,1010.1
2018-06-25T01:56:36.789Z,1010.1
2018-06-25T01:57:38.178Z,1010.1
2018-06-25T01:58:39.566Z,1010.1
2018-06-25T01:59:40.963Z,1010.1
2018-06-25T02:00:42.363Z,1010.1
2018-06-25T02:01:43.753Z,1010.0
2018-06-25T02:02:45.177Z,1010.0
2018-06-25T02:03:46.546Z,1009.9
2018-06-25T02:04:47.934Z,1009.9
2018-06-25T02:05:49.351Z,1009.9
2018-06-25T02:06:50.743Z,1010.0
2018-06-25T02:07:52.136Z,1010.0
2018-06-25T02:08:53.529Z,1010.0
2018-06-25T02:09:54.921Z,1010.0
2018-06-25T02:10:56.318Z,1010.1
2018-06-25T02:11:57.706Z,1010.1
2018-06-25T02:12:59.158Z,1010.1
2018-06-25T02:14:00.499Z,1010.0
2018-06-25T02:15:01.900Z,1010.0
2018-06-25T02:16:03.288Z,1010.0
2018-06-25T02:17:04.680Z,1010.0
2018-06-25T02:18:06.075Z,1010.0
2018-06-25T02:19:07.490Z,1010.0
2018-06-25T02:20:08.877Z,1010.0
2018-06-25T02:21:10.269Z,1010.0
2018-06-25T02:22:11.664Z,1010.0
2018-06-25T02:23:13.053Z,1010.0
2018-06-25T02:24:14.448Z,1010.0
2018-06-25T02:25:15.841Z,1010.0
2018-06-25T02:26:17.235Z,1010.0
2018-06-25T02:27:18.625Z,1010.0
2018-06-25T02:28:20.016Z,1010.0
2018-06-25T02:29:21.411Z,1010.0
2018-06-25T02:30:22.804Z,1010.0
2018-06-25T02:31:24.193Z,1010.0
2018-06-25T02:32:25.591Z,1010.1
2018-06-25T02:33:26.984Z,1010.1
2018-06-25T02:34:28.371Z,1010.1
2018-06-25T02:35:29.778Z,1010.1
2018-06-25T02:36:31.158Z,1010.0
2018-06-25T02:37:32.550Z,1010.0
2018-06-25T02:38:33.972Z,1010.1
2018-06-25T02:39:35.340Z,1010.1
2018-06-25T02:40:36.730Z,1010.1
2018-06-25T02:41:38.125Z,1010.1
2018-06-25T02:42:39.513Z,1010.1
2018-06-25T02:43:40.913Z,1010.1
2018-06-25T02:44:42.303Z,1010.1
2018-06-25T02:45:43.697Z,1010.1
2018-06-25T02:46:45.091Z,1010.1
2018-06-25T02:47:46.485Z,1010.2
2018-06-25T02:48:47.886Z,1010.1
2018-06-25T02:49:49.265Z,1010.1
2018-06-25T02:50:50.661Z,1010.2
2018-06-25T02:51:52.054Z,1010.2
2018-06-25T02:52:53.449Z,1010.1
2018-06-25T02:53:54.849Z,1010.2
2018-06-25T02:54:56.245Z,1010.2
2018-06-25T02:55:57.633Z,1010.2
2018-06-25T02:56:59.022Z,1010.2
2018-06-25T02:58:00.420Z,1010.2
2018-06-25T02:59:01.808Z,1010.1
2018-06-25T03:00:03.200Z,1010.1
2018-06-25T03:01:04.595Z,1010.1
2018-06-25T03:02:05.983Z,1010.1
2018-06-25T03:03:07.374Z,1010.1
2018-06-25T03:04:08.772Z,1010.1
2018-06-25T03:05:10.163Z,1010.1
2018-06-25T03:06:11.560Z,1010.1
2018-06-25T03:07:13.006Z,1010.2
2018-06-25T03:08:14.374Z,1010.2
2018-06-25T03:09:15.783Z,1010.1
2018-06-25T03:10:17.180Z,1010.1
2018-06-25T03:11:18.573Z,1010.1
2018-06-25T03:12:19.970Z,1010.1
2018-06-25T03:13:21.363Z,1010.1
2018-06-25T03:14:22.763Z,1010.1
2018-06-25T03:15:24.155Z,1010.1
2018-06-25T03:16:25.550Z,1010.1
2018-06-25T03:17:26.945Z,1010.2
2018-06-25T03:18:28.341Z,1010.1
2018-06-25T03:19:29.734Z,1010.2
2018-06-25T03:20:31.132Z,1010.1
2018-06-25T03:21:32.535Z,1010.1
2018-06-25T03:22:33.928Z,1010.1
2018-06-25T03:23:35.321Z,1010.1
2018-06-25T03:24:36.719Z,1010.0
2018-06-25T03:25:38.116Z,1010.0
2018-06-25T03:26:39.510Z,1010.1
2018-06-25T03:27:40.905Z,1010.1
2018-06-25T03:28:42.299Z,1010.2
2018-06-25T03:29:43.697Z,1010.2
2018-06-25T03:30:45.094Z,1010.2
2018-06-25T03:31:46.480Z,1010.1
2018-06-25T03:32:47.874Z,1010.2
2018-06-25T03:33:49.268Z,1010.2
2018-06-25T03:34:50.661Z,1010.2
2018-06-25T03:35:52.055Z,1010.2
2018-06-25T03:36:53.453Z,1010.2
2018-06-25T03:37:54.845Z,1010.2
2018-06-25T03:38:56.239Z,1010.3
2018-06-25T03:39:57.633Z,1010.2
2018-06-25T03:40:59.028Z,1010.2
2018-06-25T03:42:00.424Z,1010.2
2018-06-25T03:43:01.813Z,1010.2
2018-06-25T03:44:03.207Z,1010.2
2018-06-25T03:45:04.598Z,1010.1
2018-06-25T03:46:06.545Z,1010.2
2018-06-25T03:47:07.937Z,1010.2
2018-06-25T03:48:09.341Z,1010.2
2018-06-25T03:49:10.734Z,1010.2
2018-06-25T03:50:12.134Z,1010.3
2018-06-25T03:51:13.720Z,1010.2
2018-06-25T03:52:15.113Z,1010.3
2018-06-25T03:53:16.506Z,1010.3
2018-06-25T03:54:17.907Z,1010.3
2018-06-25T03:55:19.326Z,1010.3
2018-06-25T03:56:20.715Z,1010.3
2018-06-25T03:57:22.886Z,1010.3
2018-06-25T03:58:24.275Z,1010.3
2018-06-25T03:59:25.725Z,1010.3
2018-06-25T04:00:27.092Z,1010.3
2018-06-25T04:01:28.495Z,1010.3
2018-06-25T04:02:30.211Z,1010.3
2018-06-25T04:03:31.562Z,1010.4
2018-06-25T04:04:33.054Z,1010.3
2018-06-25T04:05:34.457Z,1010.3
2018-06-25T04:06:35.868Z,1010.3
2018-06-25T04:07:37.259Z,1010.3
2018-06-25T04:08:38.659Z,1010.3
2018-06-25T04:09:40.054Z,1010.3
2018-06-25T04:10:41.453Z,1010.4
2018-06-25T04:11:42.849Z,1010.4
2018-06-25T04:12:44.237Z,1010.4
2018-06-25T04:13:45.639Z,1010.4
2018-06-25T04:14:47.031Z,1010.3
2018-06-25T04:15:48.431Z,1010.4
2018-06-25T04:16:49.834Z,1010.4
2018-06-25T04:17:51.230Z,1010.3
2018-06-25T04:18:52.624Z,1010.4
2018-06-25T04:19:54.027Z,1010.4
2018-06-25T04:20:55.419Z,1010.3
2018-06-25T04:21:56.812Z,1010.4
2018-06-25T04:22:58.207Z,1010.4
2018-06-25T04:23:59.610Z,1010.4
2018-06-25T04:25:01.008Z,1010.4
2018-06-25T04:26:02.403Z,1010.4
2018-06-25T04:27:03.805Z,1010.4
2018-06-25T04:28:05.196Z,1010.4
2018-06-25T04:29:06.600Z,1010.5
2018-06-25T04:30:08.002Z,1010.4
2018-06-25T04:31:09.401Z,1010.5
2018-06-25T04:32:10.801Z,1010.5
2018-06-25T04:33:12.194Z,1010.5
2018-06-25T04:34:13.596Z,1010.5
2018-06-25T04:35:14.992Z,1010.5
2018-06-25T04:36:16.393Z,1010.5
2018-06-25T04:37:17.791Z,1010.5
2018-06-25T04:38:19.781Z,1010.6
2018-06-25T04:39:21.180Z,1010.6
2018-06-25T04:40:22.742Z,1010.6
2018-06-25T04:41:24.015Z,1010.6
2018-06-25T04:42:25.422Z,1010.6
2018-06-25T04:43:26.821Z,1010.6
2018-06-25T04:44:28.217Z,1010.6
2018-06-25T04:45:29.632Z,1010.5
2018-06-25T04:46:31.025Z,1010.6
2018-06-25T04:47:32.442Z,1010.6
2018-06-25T04:48:33.828Z,1010.6
2018-06-25T04:49:35.225Z,1010.7
2018-06-25T04:50:36.634Z,1010.6
2018-06-25T04:51:38.019Z,1010.6
2018-06-25T04:52:39.435Z,1010.6
2018-06-25T04:53:40.830Z,1010.6
2018-06-25T04:54:42.232Z,1010.6
2018-06-25T04:55:43.638Z,1010.6
2018-06-25T04:56:45.036Z,1010.6
2018-06-25T04:57:46.426Z,1010.7
2018-06-25T04:58:47.829Z,1010.7
2018-06-25T04:59:49.231Z,1010.7
2018-06-25T05:00:50.692Z,1010.6
2018-06-25T05:01:52.029Z,1010.7
2018-06-25T05:02:53.426Z,1010.6
2018-06-25T05:03:54.823Z,1010.7
2018-06-25T05:04:56.220Z,1010.7
2018-06-25T05:05:57.618Z,1010.7
2018-06-25T05:06:59.019Z,1010.7
2018-06-25T05:08:00.412Z,1010.7
2018-06-25T05:09:01.812Z,1010.7
2018-06-25T05:10:03.241Z,1010.8
2018-06-25T05:11:04.636Z,1010.7
2018-06-25T05:12:06.547Z,1010.7
2018-06-25T05:13:07.949Z,1010.7
2018-06-25T05:14:09.343Z,1010.7
2018-06-25T05:15:10.742Z,1010.7
2018-06-25T05:16:12.143Z,1010.7
2018-06-25T05:17:13.545Z,1010.7
2018-06-25T05:18:14.949Z,1010.8
2018-06-25T05:19:16.350Z,1010.8
2018-06-25T05:20:17.750Z,1010.8
2018-06-25T05:21:19.152Z,1010.8
2018-06-25T05:22:20.555Z,1010.8
2018-06-25T05:23:21.959Z,1010.8
2018-06-25T05:24:23.362Z,1010.8
2018-06-25T05:25:24.762Z,1010.8
2018-06-25T05:26:26.160Z,1010.8
2018-06-25T05:27:27.559Z,1010.7
2018-06-25T05:28:28.979Z,1010.7
2018-06-25T05:29:30.392Z,1010.8
2018-06-25T05:30:31.794Z,1010.7
2018-06-25T05:31:33.198Z,1010.7
2018-06-25T05:32:34.596Z,1010.7
2018-06-25T05:33:35.993Z,1010.8
2018-06-25T05:34:37.395Z,1010.7
2018-06-25T05:35:38.793Z,1010.7
2018-06-25T05:36:40.197Z,1010.8
2018-06-25T05:37:41.596Z,1010.7
2018-06-25T05:38:42.999Z,1010.8
2018-06-25T05:39:44.456Z,1010.7
2018-06-25T05:40:45.789Z,1010.8
2018-06-25T05:41:47.192Z,1010.8
2018-06-25T05:42:48.587Z,1010.8
2018-06-25T05:43:49.987Z,1010.8
2018-06-25T05:44:51.388Z,1010.8
2018-06-25T05:45:52.787Z,1010.8
2018-06-25T05:46:54.187Z,1010.8
2018-06-25T05:47:55.584Z,1010.8
2018-06-25T05:48:57.060Z,1010.9
2018-06-25T05:49:58.383Z,1010.8
2018-06-25T05:50:59.782Z,1010.8
2018-06-25T05:52:01.183Z,1010.8
2018-06-25T05:53:02.585Z,1010.8
2018-06-25T05:54:03.979Z,1010.9
2018-06-25T05:55:05.371Z,1010.9
2018-06-25T05:56:06.775Z,1010.9
2018-06-25T05:57:08.174Z,1010.9
2018-06-25T05:58:09.574Z,1010.9
2018-06-25T05:59:10.987Z,1011.0
2018-06-25T06:00:12.391Z,1010.9
2018-06-25T06:01:13.789Z,1011.0
2018-06-25T06:02:15.193Z,1010.9
2018-06-25T06:03:16.584Z,1011.0
2018-06-25T06:04:17.999Z,1011.0
2018-06-25T06:05:19.400Z,1011.0
2018-06-25T06:06:20.800Z,1011.0
2018-06-25T06:07:22.204Z,1011.0
2018-06-25T06:08:23.605Z,1011.0
2018-06-25T06:09:25.008Z,1011.0
2018-06-25T06:10:26.407Z,1011.0
2018-06-25T06:11:27.804Z,1010.9
2018-06-25T06:12:29.199Z,1011.0
2018-06-25T06:13:30.599Z,1011.0
2018-06-25T06:14:31.999Z,1011.0
2018-06-25T06:15:33.394Z,1011.0
2018-06-25T06:16:34.942Z,1011.0
2018-06-25T06:17:36.413Z,1011.1
2018-06-25T06:18:37.802Z,1011.0
2018-06-25T06:19:39.202Z,1011.0
2018-06-25T06:20:40.601Z,1011.0
2018-06-25T06:21:42.006Z,1011.0
2018-06-25T06:22:43.508Z,1011.0
2018-06-25T06:23:44.903Z,1011.0
2018-06-25T06:24:46.306Z,1011.0
2018-06-25T06:25:47.699Z,1011.0
2018-06-25T06:26:49.101Z,1011.1
2018-06-25T06:27:50.495Z,1011.1
2018-06-25T06:28:51.899Z,1011.1
2018-06-25T06:29:53.297Z,1011.2
2018-06-25T06:30:54.715Z,1011.2
2018-06-25T06:31:56.092Z,1011.2
2018-06-25T06:32:57.485Z,1011.2
2018-06-25T06:33:58.882Z,1011.2
2018-06-25T06:35:00.281Z,1011.2
2018-06-25T06:36:01.683Z,1011.2
2018-06-25T06:37:03.742Z,1011.2
2018-06-25T06:38:05.138Z,1011.2
2018-06-25T06:39:07.126Z,1011.2
2018-06-25T06:40:08.566Z,1011.2
2018-06-25T06:41:09.929Z,1011.1
2018-06-25T06:42:11.329Z,1011.3
2018-06-25T06:43:12.734Z,1011.2
2018-06-25T06:44:14.133Z,1011.2
2018-06-25T06:45:15.532Z,1011.2
2018-06-25T06:46:16.937Z,1011.3
2018-06-25T06:47:18.336Z,1011.3
2018-06-25T06:48:19.740Z,1011.3
2018-06-25T06:49:21.183Z,1011.3
2018-06-25T06:50:22.582Z,1011.3
2018-06-25T06:51:23.984Z,1011.4
2018-06-25T06:52:25.381Z,1011.4
2018-06-25T06:53:26.779Z,1011.5
2018-06-25T06:54:28.180Z,1011.5
2018-06-25T06:55:29.581Z,1011.5
2018-06-25T06:56:30.980Z,1011.5
2018-06-25T06:57:32.425Z,1011.5
2018-06-25T06:58:33.782Z,1011.5
2018-06-25T06:59:35.183Z,1011.5
2018-06-25T07:00:36.624Z,1011.5
2018-06-25T07:01:38.021Z,1011.5
2018-06-25T07:02:39.456Z,1011.5
2018-06-25T07:03:40.858Z,1011.5
2018-06-25T07:04:42.304Z,1011.5
2018-06-25T07:05:43.677Z,1011.5
2018-06-25T07:06:45.108Z,1011.6
2018-06-25T07:07:46.502Z,1011.6
2018-06-25T07:08:47.926Z,1011.5
2018-06-25T07:09:49.324Z,1011.5
2018-06-25T07:10:50.721Z,1011.6
2018-06-25T07:11:52.132Z,1011.5
2018-06-25T07:12:53.531Z,1011.4
2018-06-25T07:13:54.933Z,1011.5
2018-06-25T07:14:56.329Z,1011.5
2018-06-25T07:15:57.726Z,1011.5
2018-06-25T07:16:59.153Z,1011.6
2018-06-25T07:18:00.550Z,1011.5
2018-06-25T07:19:01.950Z,1011.5
2018-06-25T07:20:03.347Z,1011.5
2018-06-25T07:21:04.746Z,1011.5
2018-06-25T07:22:06.971Z,1011.5
2018-06-25T07:23:07.496Z,1011.5
2018-06-25T07:24:08.897Z,1011.5
2018-06-25T07:25:10.301Z,1011.5
2018-06-25T07:26:11.702Z,1011.5
2018-06-25T07:27:13.103Z,1011.5
2018-06-25T07:28:14.502Z,1011.5
2018-06-25T07:29:15.957Z,1011.5
2018-06-25T07:30:17.303Z,1011.6
2018-06-25T07:31:18.705Z,1011.5
2018-06-25T07:32:20.104Z,1011.5
2018-06-25T07:33:21.507Z,1011.5
2018-06-25T07:34:22.908Z,1011.5
2018-06-25T07:35:24.307Z,1011.5
2018-06-25T07:36:25.706Z,1011.6
2018-06-25T07:37:27.115Z,1011.6
2018-06-25T07:38:28.511Z,1011.5
2018-06-25T07:39:29.915Z,1011.6
2018-06-25T07:40:31.316Z,1011.6
2018-06-25T07:41:32.841Z,1011.7
2018-06-25T07:42:34.228Z,1011.7
2018-06-25T07:43:35.623Z,1011.7
2018-06-25T07:44:37.074Z,1011.6
2018-06-25T07:45:38.428Z,1011.6
2018-06-25T07:46:39.832Z,1011.6
2018-06-25T07:47:41.233Z,1011.6
2018-06-25T07:48:42.633Z,1011.6
2018-06-25T07:49:44.028Z,1011.7
2018-06-25T07:50:45.425Z,1011.6
2018-06-25T07:51:46.826Z,1011.6
2018-06-25T07:52:48.222Z,1011.6
2018-06-25T07:53:49.618Z,1011.7
2018-06-25T07:54:51.125Z,1011.7
2018-06-25T07:55:52.539Z,1011.6
2018-06-25T07:56:53.934Z,1011.6
2018-06-25T07:57:55.328Z,1011.7
2018-06-25T07:58:56.779Z,1011.7
2018-06-25T07:59:58.175Z,1011.7
2018-06-25T08:00:59.644Z,1011.7
2018-06-25T08:02:01.042Z,1011.7
2018-06-25T08:03:02.432Z,1011.7
2018-06-25T08:04:03.830Z,1011.7
2018-06-25T08:05:05.233Z,1011.7
2018-06-25T08:06:07.483Z,1011.7
2018-06-25T08:07:08.035Z,1011.7
2018-06-25T08:08:09.436Z,1011.7
2018-06-25T08:09:10.841Z,1011.7
2018-06-25T08:10:12.240Z,1011.7
2018-06-25T08:11:13.645Z,1011.7
2018-06-25T08:12:15.037Z,1011.7
2018-06-25T08:13:16.475Z,1011.7
2018-06-25T08:14:17.874Z,1011.7
2018-06-25T08:15:19.276Z,1011.7
2018-06-25T08:16:20.760Z,1011.7
2018-06-25T08:17:22.089Z,1011.7
2018-06-25T08:18:23.479Z,1011.7
2018-06-25T08:19:24.875Z,1011.7
2018-06-25T08:20:26.350Z,1011.7
2018-06-25T08:21:27.681Z,1011.7
2018-06-25T08:22:29.079Z,1011.7
2018-06-25T08:23:30.481Z,1011.7
2018-06-25T08:24:31.883Z,1011.8
2018-06-25T08:25:33.280Z,1011.9
2018-06-25T08:26:34.677Z,1011.9
2018-06-25T08:27:36.079Z,1011.9
2018-06-25T08:28:37.480Z,1011.8
2018-06-25T08:29:38.906Z,1011.9
2018-06-25T08:30:40.289Z,1011.9
2018-06-25T08:31:41.690Z,1011.9
2018-06-25T08:32:43.096Z,1011.9
2018-06-25T08:33:44.544Z,1011.9
2018-06-25T08:34:45.898Z,1011.9
2018-06-25T08:35:47.294Z,1011.9
2018-06-25T08:36:48.694Z,1011.9
2018-06-25T08:37:50.090Z,1011.9
2018-06-25T08:38:51.487Z,1011.9
2018-06-25T08:39:52.905Z,1011.9
2018-06-25T08:40:54.302Z,1011.9
2018-06-25T08:41:55.701Z,1011.8
2018-06-25T08:42:57.189Z,1011.9
2018-06-25T08:43:58.640Z,1011.9
2018-06-25T08:45:00.047Z,1012.0
2018-06-25T08:46:01.439Z,1012.0
2018-06-25T08:47:02.836Z,1011.9
2018-06-25T08:48:04.235Z,1012.0
2018-06-25T08:49:05.631Z,1012.0
2018-06-25T08:50:07.028Z,1012.0
2018-06-25T08:51:08.426Z,1012.0
2018-06-25T08:52:10.286Z,1012.0
2018-06-25T08:53:11.678Z,1012.0
2018-06-25T08:54:14.202Z,1012.1
2018-06-25T08:55:15.594Z,1012.1
2018-06-25T08:56:17.229Z,1012.0
2018-06-25T08:57:18.628Z,1012.0
2018-06-25T08:58:20.023Z,1012.1
2018-06-25T08:59:21.467Z,1012.0
2018-06-25T09:00:22.825Z,1012.1
2018-06-25T09:01:24.220Z,1012.0
2018-06-25T09:02:25.621Z,1012.0
2018-06-25T09:03:27.015Z,1012.1
2018-06-25T09:04:28.441Z,1012.1
2018-06-25T09:05:29.810Z,1012.1
2018-06-25T09:06:31.207Z,1012.1
2018-06-25T09:07:32.603Z,1012.1
2018-06-25T09:08:34.009Z,1012.0
2018-06-25T09:09:35.440Z,1012.0
2018-06-25T09:10:36.799Z,1012.1
2018-06-25T09:11:38.199Z,1012.0
2018-06-25T09:12:39.721Z,1012.0
2018-06-25T09:13:41.125Z,1012.0
2018-06-25T09:14:43.452Z,1012.1
2018-06-25T09:15:44.851Z,1012.1
2018-06-25T09:16:46.253Z,1012.1
2018-06-25T09:17:47.650Z,1012.2
2018-06-25T09:18:49.050Z,1012.1
2018-06-25T09:19:50.460Z,1012.2
2018-06-25T09:20:51.859Z,1012.2
2018-06-25T09:21:53.254Z,1012.2
2018-06-25T09:22:54.652Z,1012.2
2018-06-25T09:23:56.050Z,1012.2
2018-06-25T09:24:57.448Z,1012.2
2018-06-25T09:25:58.956Z,1012.2
2018-06-25T09:27:00.346Z,1012.2
2018-06-25T09:28:01.798Z,1012.2
2018-06-25T09:29:03.143Z,1012.2
2018-06-25T09:30:04.534Z,1012.2
2018-06-25T09:31:05.929Z,1012.2
2018-06-25T09:32:07.335Z,1012.3
2018-06-25T09:33:08.718Z,1012.2
2018-06-25T09:34:10.118Z,1012.2
2018-06-25T09:35:11.552Z,1012.2
2018-06-25T09:36:12.918Z,1012.2
2018-06-25T09:37:14.313Z,1012.3
2018-06-25T09:38:15.716Z,1012.3
2018-06-25T09:39:17.200Z,1012.3
2018-06-25T09:40:18.606Z,1012.3
2018-06-25T09:41:20.120Z,1012.3
2018-06-25T09:42:21.378Z,1012.2
2018-06-25T09:43:22.783Z,1012.2
2018-06-25T09:44:24.177Z,1012.2
2018-06-25T09:45:25.580Z,1012.2
2018-06-25T09:46:26.976Z,1012.2
2018-06-25T09:47:28.390Z,1012.2
2018-06-25T09:48:29.792Z,1012.1
2018-06-25T09:49:31.191Z,1012.1
2018-06-25T09:50:32.598Z,1012.2
2018-06-25T09:51:33.996Z,1012.2
2018-06-25T09:52:35.397Z,1012.1
2018-06-25T09:53:36.797Z,1012.1
2018-06-25T09:54:38.201Z,1012.1
2018-06-25T09:55:39.602Z,1012.1
2018-06-25T09:56:41.001Z,1012.2
2018-06-25T09:57:42.400Z,1012.2
2018-06-25T09:58:43.800Z,1012.2
2018-06-25T09:59:45.202Z,1012.2
2018-06-25T10:00:46.602Z,1012.2
2018-06-25T10:01:48.015Z,1012.2
2018-06-25T10:02:49.417Z,1012.2
2018-06-25T10:03:50.900Z,1012.2
2018-06-25T10:04:53.123Z,1012.2
2018-06-25T10:05:54.722Z,1012.2
2018-06-25T10:06:56.109Z,1012.2
2018-06-25T10:07:57.508Z,1012.2
2018-06-25T10:08:59.052Z,1012.2
2018-06-25T10:10:01.434Z,1012.2
2018-06-25T10:11:03.114Z,1012.2
2018-06-25T10:12:04.485Z,1012.2
2018-06-25T10:13:06.015Z,1012.1
2018-06-25T10:14:07.409Z,1012.1
2018-06-25T10:15:08.815Z,1012.2
2018-06-25T10:16:10.215Z,1012.1
2018-06-25T10:17:11.620Z,1012.2
2018-06-25T10:18:13.145Z,1012.2
2018-06-25T10:19:14.656Z,1012.2
2018-06-25T10:20:16.102Z,1012.2
2018-06-25T10:21:17.524Z,1012.2
2018-06-25T10:22:18.869Z,1012.2
2018-06-25T10:23:20.273Z,1012.2
2018-06-25T10:24:21.679Z,1012.2
2018-06-25T10:25:23.079Z,1012.2
2018-06-25T10:26:24.475Z,1012.2
2018-06-25T10:27:25.881Z,1012.2
2018-06-25T10:28:27.316Z,1012.2
2018-06-25T10:29:28.947Z,1012.2
2018-06-25T10:30:30.340Z,1012.2
2018-06-25T10:31:31.741Z,1012.2
2018-06-25T10:32:33.158Z,1012.2
2018-06-25T10:33:34.553Z,1012.2
2018-06-25T10:34:35.954Z,1012.2
2018-06-25T10:35:37.359Z,1012.2
2018-06-25T10:36:38.752Z,1012.2
2018-06-25T10:37:40.155Z,1012.2
2018-06-25T10:38:41.557Z,1012.2
2018-06-25T10:39:42.965Z,1012.2
2018-06-25T10:40:44.362Z,1012.2
2018-06-25T10:41:45.762Z,1012.2
2018-06-25T10:42:47.163Z,1012.2
2018-06-25T10:43:48.560Z,1012.2
2018-06-25T10:44:49.966Z,1012.2
2018-06-25T10:45:51.363Z,1012.2
2018-06-25T10:46:52.765Z,1012.2
2018-06-25T10:47:54.164Z,1012.2
2018-06-25T10:48:55.560Z,1012.2
2018-06-25T10:49:56.959Z,1012.2
2018-06-25T10:50:58.360Z,1012.2
2018-06-25T10:52:00.582Z,1012.2
2018-06-25T10:53:01.982Z,1012.2
2018-06-25T10:54:03.411Z,1012.2
2018-06-25T10:55:04.815Z,1012.2
2018-06-25T10:56:06.248Z,1012.2
2018-06-25T10:57:07.799Z,1012.2
2018-06-25T10:58:09.199Z,1012.2
2018-06-25T10:59:10.626Z,1012.2
2018-06-25T11:00:12.208Z,1012.2
2018-06-25T11:01:13.539Z,1012.2
2018-06-25T11:02:14.834Z,1012.2
2018-06-25T11:03:16.233Z,1012.2
2018-06-25T11:04:17.672Z,1012.2
2018-06-25T11:05:19.075Z,1012.2
2018-06-25T11:06:20.473Z,1012.2
2018-06-25T11:07:21.965Z,1012.1
2018-06-25T11:08:23.369Z,1012.1
2018-06-25T11:09:24.771Z,1012.1
2018-06-25T11:10:26.171Z,1012.1
2018-06-25T11:11:27.566Z,1012.2
2018-06-25T11:12:28.970Z,1012.2
2018-06-25T11:13:30.376Z,1012.2
2018-06-25T11:14:31.775Z,1012.2
2018-06-25T11:15:33.183Z,1012.1
2018-06-25T11:16:34.598Z,1012.1
2018-06-25T11:17:35.998Z,1012.2
2018-06-25T11:18:37.401Z,1012.1
2018-06-25T11:19:38.804Z,1012.1
2018-06-25T11:20:40.205Z,1012.1
2018-06-25T11:21:41.604Z,1012.1
2018-06-25T11:22:43.015Z,1012.1
2018-06-25T11:23:44.409Z,1012.1
2018-06-25T11:24:45.814Z,1012.1
2018-06-25T11:25:47.221Z,1012.1
2018-06-25T11:26:48.687Z,1012.1
2018-06-25T11:27:50.109Z,1012.1
2018-06-25T11:28:51.421Z,1012.1
2018-06-25T11:29:52.826Z,1012.2
2018-06-25T11:30:54.224Z,1012.1
2018-06-25T11:31:55.624Z,1012.1
2018-06-25T11:32:57.024Z,1012.1
2018-06-25T11:33:58.428Z,1012.1
2018-06-25T11:34:59.826Z,1012.1
2018-06-25T11:36:01.231Z,1012.1
2018-06-25T11:37:02.629Z,1012.0
2018-06-25T11:38:04.065Z,1012.1
2018-06-25T11:39:05.462Z,1012.1
2018-06-25T11:40:06.861Z,1012.0
2018-06-25T11:41:08.261Z,1012.0
2018-06-25T11:42:09.710Z,1012.0
2018-06-25T11:43:11.063Z,1012.0
2018-06-25T11:44:12.465Z,1012.1
2018-06-25T11:45:13.864Z,1012.0
2018-06-25T11:46:15.261Z,1012.0
2018-06-25T11:47:16.741Z,1012.1
2018-06-25T11:48:18.253Z,1012.0
2018-06-25T11:49:19.608Z,1012.0
2018-06-25T11:50:21.005Z,1012.0
2018-06-25T11:51:22.407Z,1012.0
2018-06-25T11:52:23.810Z,1012.0
2018-06-25T11:53:25.214Z,1012.0
2018-06-25T11:54:26.613Z,1012.0
2018-06-25T11:55:28.011Z,1012.0
2018-06-25T11:56:29.413Z,1012.0
2018-06-25T11:57:30.812Z,1012.0
2018-06-25T11:58:32.218Z,1012.0
2018-06-25T11:59:33.618Z,1012.0
2018-06-25T12:00:35.013Z,1012.0
2018-06-25T12:01:36.419Z,1012.0
2018-06-25T12:02:37.948Z,1012.1
2018-06-25T12:03:39.213Z,1012.1
2018-06-25T12:04:40.614Z,1012.1
2018-06-25T12:05:42.015Z,1012.1
2018-06-25T12:06:43.413Z,1012.1
2018-06-25T12:07:44.812Z,1012.1
2018-06-25T12:08:46.210Z,1012.1
2018-06-25T12:09:47.610Z,1012.1
2018-06-25T12:10:49.015Z,1012.1
2018-06-25T12:11:50.410Z,1012.1
2018-06-25T12:12:51.812Z,1012.1
2018-06-25T12:13:53.213Z,1012.1
2018-06-25T12:14:54.610Z,1012.1
2018-06-25T12:15:56.012Z,1012.1
2018-06-25T12:16:57.411Z,1012.1
2018-06-25T12:17:58.811Z,1012.1
2018-06-25T12:19:00.244Z,1012.1
2018-06-25T12:20:01.621Z,1012.1
2018-06-25T12:21:03.013Z,1012.1
2018-06-25T12:22:04.410Z,1012.1
2018-06-25T12:23:05.851Z,1012.1
2018-06-25T12:24:07.211Z,1012.1
2018-06-25T12:25:08.611Z,1012.1
2018-06-25T12:26:10.017Z,1012.1
2018-06-25T12:27:11.413Z,1012.1
2018-06-25T12:28:12.814Z,1012.2
2018-06-25T12:29:14.213Z,1012.2
2018-06-25T12:30:15.611Z,1012.1
2018-06-25T12:31:17.011Z,1012.1
2018-06-25T12:32:18.410Z,1012.2
2018-06-25T12:33:19.815Z,1012.2
2018-06-25T12:34:21.212Z,1012.1
2018-06-25T12:35:22.628Z,1012.2
2018-06-25T12:36:24.065Z,1012.1
2018-06-25T12:37:25.464Z,1012.1
2018-06-25T12:38:26.957Z,1012.1
2018-06-25T12:39:28.462Z,1012.1
2018-06-25T12:40:29.868Z,1012.1
2018-06-25T12:41:31.304Z,1012.1
2018-06-25T12:42:32.655Z,1012.1
2018-06-25T12:43:34.056Z,1012.2
2018-06-25T12:44:35.454Z,1012.1
2018-06-25T12:45:36.848Z,1012.1
2018-06-25T12:46:38.248Z,1012.1